createdAt,value
2018-04-30T00:02:47.048Z,3.4
2018-04-30T00:05:47.123Z,3.4
2018-04-30T00:08:47.010Z,3.4
2018-04-30T00:11:46.908Z,3.4
2018-04-30T00:14:47.017Z,3.4
2018-04-30T00:17:46.862Z,3.4
2018-04-30T00:20:46.898Z,3.4
2018-04-30T00:23:46.925Z,3.4
2018-04-30T00:26:47.082Z,3.4
2018-04-30T00:29:47.090Z,3.4
2018-04-30T00:32:46.949Z,3.4
2018-04-30T00:35:47.015Z,3.4
2018-04-30T00:38:47.364Z,3.4
2018-04-30T00:41:46.909Z,3.4
2018-04-30T00:44:47.045Z,3.4
2018-04-30T00:47:46.910Z,3.4
2018-04-30T00:50:47.279Z,3.4
2018-04-30T00:53:46.864Z,3.4
2018-04-30T00:56:46.985Z,3.4
2018-04-30T00:59:46.833Z,3.4
2018-04-30T01:02:47.115Z,3.4
2018-04-30T01:05:47.064Z,3.4
2018-04-30T01:08:46.962Z,3.4
2018-04-30T01:11:46.863Z,3.4
2018-04-30T01:14:47.065Z,3.4
2018-04-30T01:17:46.884Z,3.4
2018-04-30T01:20:47.024Z,3.4
2018-04-30T01:23:47.360Z,3.4
2018-04-30T01:26:47.222Z,3.4
2018-04-30T01:29:47.267Z,3.4
2018-04-30T01:32:47.040Z,3.4
2018-04-30T01:35:47.277Z,3.4
2018-04-30T01:38:47.049Z,3.4
2018-04-30T01:41:46.985Z,3.4
2018-04-30T01:44:47.076Z,3.4
2018-04-30T01:47:46.945Z,3.4
2018-04-30T01:50:47.007Z,3.4
2018-04-30T01:53:46.839Z,3.4
2018-04-30T01:56:47.079Z,3.4
2018-04-30T01:59:46.902Z,3.4
2018-04-30T02:02:46.980Z,3.4
2018-04-30T02:05:47.092Z,3.4
2018-04-30T02:08:46.904Z,3.4
2018-04-30T02:11:46.975Z,3.4
2018-04-30T02:14:47.033Z,3.4
2018-04-30T02:17:47.057Z,3.4
2018-04-30T02:20:46.913Z,3.4
2018-04-30T02:23:46.987Z,3.4
2018-04-30T02:26:47.324Z,3.4
2018-04-30T02:29:47.188Z,3.4
2018-04-30T02:32:46.996Z,3.4
2018-04-30T02:35:47.067Z,3.4
2018-04-30T02:38:46.941Z,3.4
2018-04-30T02:41:47.009Z,3.4
2018-04-30T02:44:46.987Z,3.4
2018-04-30T02:47:47.027Z,3.4
2018-04-30T02:50:46.978Z,3.4
2018-04-30T02:53:46.890Z,3.4
2018-04-30T02:56:46.946Z,3.4
2018-04-30T02:59:46.972Z,3.4
2018-04-30T03:02:46.882Z,3.4
2018-04-30T03:05:47.053Z,3.4
2018-04-30T03:08:46.872Z,3.4
2018-04-30T03:11:47.043Z,3.4
2018-04-30T03:14:46.863Z,3.4
2018-04-30T03:17:47.096Z,3.4
2018-04-30T03:20:46.922Z,3.4
2018-04-30T03:23:46.805Z,3.4
2018-04-30T03:26:47.137Z,3.4
2018-04-30T03:29:46.960Z,3.4
2018-04-30T03:32:46.960Z,3.4
2018-04-30T03:35:47.001Z,3.4
2018-04-30T03:38:47.020Z,3.4
2018-04-30T03:41:46.791Z,3.4
2018-04-30T03:44:46.862Z,3.4
2018-04-30T03:47:46.988Z,3.4
2018-04-30T03:50:46.923Z,3.4
2018-04-30T03:53:47.302Z,3.4
2018-04-30T03:56:46.904Z,3.4
2018-04-30T03:59:47.195Z,3.4
2018-04-30T04:02:46.969Z,3.4
2018-04-30T04:05:46.884Z,3.4
2018-04-30T04:08:46.769Z,3.4
2018-04-30T04:11:47.062Z,3.4
2018-04-30T04:14:46.906Z,3.4
2018-04-30T04:17:47.190Z,3.4
2018-04-30T04:20:47.120Z,3.4
2018-04-30T04:23:46.831Z,3.4
2018-04-30T04:26:46.886Z,3.4
2018-04-30T04:29:46.892Z,3.4
2018-04-30T04:32:46.993Z,3.4
2018-04-30T04:35:46.910Z,3.4
2018-04-30T04:38:46.778Z,3.4
2018-04-30T04:41:48.440Z,3.4
2018-04-30T04:44:46.779Z,3.4
2018-04-30T04:47:46.947Z,3.4
2018-04-30T04:50:47.089Z,3.4
2018-04-30T04:53:46.992Z,3.4
2018-04-30T04:56:46.765Z,3.4
2018-04-30T04:59:46.831Z,3.4
2018-04-30T05:02:46.880Z,3.4
2018-04-30T05:05:46.899Z,3.4
2018-04-30T05:08:46.889Z,3.4
2018-04-30T05:11:46.972Z,3.4
2018-04-30T05:14:46.997Z,3.4
2018-04-30T05:17:46.974Z,3.4
2018-04-30T05:20:47.364Z,3.4
2018-04-30T05:23:47.235Z,3.4
2018-04-30T05:26:47.260Z,3.4
2018-04-30T05:29:47.008Z,3.4
2018-04-30T05:32:46.914Z,3.4
2018-04-30T05:35:46.995Z,3.4
2018-04-30T05:38:46.846Z,3.4
2018-04-30T05:41:46.808Z,3.4
2018-04-30T05:44:46.753Z,3.4
2018-04-30T05:47:46.769Z,3.4
2018-04-30T05:50:47.041Z,3.4
2018-04-30T05:53:46.925Z,3.4
2018-04-30T05:56:46.978Z,3.4
2018-04-30T05:59:46.760Z,3.4
2018-04-30T06:02:47.016Z,3.4
2018-04-30T06:05:46.913Z,3.4
2018-04-30T06:08:46.844Z,3.4
2018-04-30T06:11:47.127Z,3.4
2018-04-30T06:14:46.859Z,3.4
2018-04-30T06:17:46.692Z,3.4
2018-04-30T06:20:46.872Z,3.4
2018-04-30T06:23:46.872Z,3.4
2018-04-30T06:26:49.014Z,3.4
2018-04-30T06:29:46.853Z,3.4
2018-04-30T06:32:46.899Z,3.4
2018-04-30T06:35:47.962Z,3.4
2018-04-30T06:38:47.008Z,3.4
2018-04-30T06:41:46.777Z,3.4
2018-04-30T06:44:46.994Z,3.4
2018-04-30T06:47:46.952Z,3.4
2018-04-30T06:50:46.773Z,3.4
2018-04-30T06:53:46.895Z,3.4
2018-04-30T06:56:47.006Z,3.4
2018-04-30T06:59:46.963Z,3.4
2018-04-30T07:02:46.753Z,3.3
2018-04-30T07:05:46.929Z,3.3
2018-04-30T07:08:46.734Z,3.3
2018-04-30T07:11:46.939Z,3.3
2018-04-30T07:14:46.915Z,3.3
2018-04-30T07:17:47.297Z,3.3
2018-04-30T07:20:47.029Z,3.3
2018-04-30T07:23:47.038Z,3.3
2018-04-30T07:26:46.864Z,3.3
2018-04-30T07:29:46.971Z,3.3
2018-04-30T07:32:47.146Z,3.3
2018-04-30T07:35:46.808Z,3.3
2018-04-30T07:38:46.756Z,3.3
2018-04-30T07:41:46.866Z,3.3
2018-04-30T07:44:46.861Z,3.3
2018-04-30T07:47:46.811Z,3.3
2018-04-30T07:50:46.867Z,3.3
2018-04-30T07:53:46.951Z,3.3
2018-04-30T07:56:46.788Z,3.3
2018-04-30T07:59:47.315Z,3.3
2018-04-30T08:02:46.919Z,3.3
2018-04-30T08:05:47.048Z,3.3
2018-04-30T08:08:46.849Z,3.3
2018-04-30T08:11:46.901Z,3.3
2018-04-30T08:14:47.556Z,3.3
2018-04-30T08:17:47.184Z,3.3
2018-04-30T08:20:46.889Z,3.3
2018-04-30T08:23:46.629Z,3.3
2018-04-30T08:26:47.201Z,3.3
2018-04-30T08:29:46.793Z,3.3
2018-04-30T08:32:46.724Z,3.3
2018-04-30T08:35:46.935Z,3.3
2018-04-30T08:38:46.726Z,3.3
2018-04-30T08:41:47.253Z,3.3
2018-04-30T08:44:47.231Z,3.3
2018-04-30T08:47:47.184Z,3.3
2018-04-30T08:50:46.945Z,3.3
2018-04-30T08:53:46.914Z,3.3
2018-04-30T08:56:46.874Z,3.3
2018-04-30T08:59:46.871Z,3.3
2018-04-30T09:02:46.899Z,3.2
2018-04-30T09:05:46.858Z,3.2
2018-04-30T09:08:47.101Z,3.2
2018-04-30T09:11:47.218Z,3.2
2018-04-30T10:02:43.536Z,4.2
2018-04-30T10:05:43.502Z,4.2
2018-04-30T10:08:43.588Z,4.2
2018-04-30T10:11:43.520Z,4.2
2018-04-30T10:14:43.575Z,4.2
2018-04-30T10:17:44.369Z,4.2
2018-04-30T10:20:43.481Z,4.2
2018-04-30T10:23:45.159Z,4.2
2018-04-30T10:26:43.960Z,4.2
2018-04-30T10:29:43.598Z,4.2
2018-04-30T10:32:43.823Z,4.2
2018-04-30T10:35:43.662Z,4.2
2018-04-30T10:38:43.487Z,4.2
2018-04-30T10:41:43.628Z,4.2
2018-04-30T10:44:43.494Z,4.2
2018-04-30T10:47:43.600Z,4.2
2018-04-30T10:50:43.578Z,4.2
2018-04-30T10:53:43.639Z,4.2
2018-04-30T10:56:43.704Z,4.2
2018-04-30T10:59:43.695Z,4.2
2018-04-30T11:02:45.036Z,3.5
2018-04-30T11:05:43.528Z,3.5
2018-04-30T11:08:43.503Z,3.5
2018-04-30T11:11:43.475Z,3.5
2018-04-30T11:14:43.599Z,3.5
2018-04-30T11:17:43.659Z,3.5
2018-04-30T11:20:43.657Z,3.5
2018-04-30T11:23:43.679Z,3.5
2018-04-30T11:26:43.497Z,3.5
2018-04-30T11:29:43.558Z,3.5
2018-04-30T11:32:43.634Z,3.5
2018-04-30T11:35:43.728Z,3.5
2018-04-30T11:38:43.549Z,3.5
2018-04-30T11:41:43.612Z,3.5
2018-04-30T11:44:43.745Z,3.5
2018-04-30T11:47:43.706Z,3.5
2018-04-30T11:50:43.663Z,3.5
2018-04-30T11:53:43.769Z,3.5
2018-04-30T11:56:43.935Z,3.5
2018-04-30T11:59:43.802Z,3.5
2018-04-30T12:02:46.220Z,3.1
2018-04-30T12:05:43.636Z,3.1
2018-04-30T12:08:44.199Z,3.1
2018-04-30T12:11:43.798Z,3.1
2018-04-30T12:14:43.765Z,3.1
2018-04-30T12:17:43.960Z,3.1
2018-04-30T12:20:44.144Z,3.1
2018-04-30T12:23:43.902Z,3.1
2018-04-30T12:26:43.695Z,3.1
2018-04-30T12:29:45.280Z,3.1
2018-04-30T12:32:43.994Z,3.1
2018-04-30T12:35:43.951Z,3.1
2018-04-30T12:38:43.960Z,3.1
2018-04-30T12:41:43.910Z,3.1
2018-04-30T12:44:43.871Z,3.1
2018-04-30T12:47:43.925Z,3.1
2018-04-30T12:50:44.985Z,3.1
2018-04-30T12:53:44.863Z,3.1
2018-04-30T12:56:43.909Z,3.1
2018-04-30T12:59:44.448Z,3.1
2018-04-30T13:02:44.489Z,2.9
2018-04-30T13:05:43.920Z,2.9
2018-04-30T13:08:47.518Z,2.9
2018-04-30T13:11:44.319Z,2.9
2018-04-30T13:14:44.267Z,2.9
2018-04-30T13:17:44.456Z,2.9
2018-04-30T13:20:45.648Z,2.9
2018-04-30T13:23:45.503Z,2.9
2018-04-30T13:26:45.439Z,2.9
2018-04-30T13:29:44.991Z,2.9
2018-04-30T13:32:44.057Z,2.9
2018-04-30T13:35:44.160Z,2.9
2018-04-30T13:38:45.498Z,2.9
2018-04-30T13:41:44.318Z,2.9
2018-04-30T13:44:45.051Z,2.9
2018-04-30T13:47:44.250Z,2.9
2018-04-30T13:50:44.307Z,2.9
2018-04-30T13:53:45.607Z,2.9
2018-04-30T13:56:45.724Z,2.9
2018-04-30T13:59:43.660Z,2.9
2018-04-30T14:02:43.544Z,2.8
2018-04-30T14:05:44.691Z,2.8
2018-04-30T14:08:43.481Z,2.8
2018-04-30T14:11:43.619Z,2.8
2018-04-30T14:14:43.708Z,2.8
2018-04-30T14:17:43.588Z,2.8
2018-04-30T14:20:43.563Z,2.8
2018-04-30T14:23:43.562Z,2.8
2018-04-30T14:26:43.699Z,2.8
2018-04-30T14:29:43.414Z,2.8
2018-04-30T14:32:43.525Z,2.8
2018-04-30T14:35:43.633Z,2.8
2018-04-30T14:38:43.772Z,2.8
2018-04-30T14:41:43.528Z,2.8
2018-04-30T14:44:43.494Z,2.8
2018-04-30T14:47:43.639Z,2.8
2018-04-30T14:50:43.623Z,2.8
2018-04-30T14:53:43.668Z,2.8
2018-04-30T14:56:44.065Z,2.8
2018-04-30T14:59:43.545Z,2.8
2018-04-30T15:02:43.623Z,2.8
2018-04-30T15:05:43.651Z,2.8
2018-04-30T15:08:43.628Z,2.8
2018-04-30T15:11:43.491Z,2.8
2018-04-30T15:14:43.971Z,2.8
2018-04-30T15:17:43.853Z,2.8
2018-04-30T15:20:43.858Z,2.8
2018-04-30T15:23:43.465Z,2.8
2018-04-30T15:26:43.451Z,2.8
2018-04-30T15:29:44.076Z,2.8
2018-04-30T15:32:43.539Z,2.8
2018-04-30T15:35:44.807Z,2.8
2018-04-30T15:38:43.525Z,2.8
2018-04-30T15:41:43.602Z,2.8
2018-04-30T15:44:43.977Z,2.8
2018-04-30T15:47:44.511Z,2.8
2018-04-30T15:50:43.706Z,2.8
2018-04-30T15:53:43.656Z,2.8
2018-04-30T15:56:43.703Z,2.8
2018-04-30T15:59:43.675Z,2.8
2018-04-30T16:02:43.772Z,3.1
2018-04-30T16:05:43.652Z,3.1
2018-04-30T16:08:43.757Z,3.1
2018-04-30T16:11:43.568Z,3.1
2018-04-30T16:14:43.524Z,3.1
2018-04-30T16:17:43.512Z,3.1
2018-04-30T16:20:43.748Z,3.1
2018-04-30T16:23:43.787Z,3.1
2018-04-30T16:26:43.603Z,3.1
2018-04-30T16:29:43.576Z,3.1
2018-04-30T16:32:43.575Z,3.1
2018-04-30T16:35:43.529Z,3.1
2018-04-30T16:38:43.614Z,3.1
2018-04-30T16:41:43.464Z,3.1
2018-04-30T16:44:43.575Z,3.1
2018-04-30T16:47:43.622Z,3.1
2018-04-30T16:50:43.543Z,3.1
2018-04-30T16:53:43.575Z,3.1
2018-04-30T16:56:43.576Z,3.1
2018-04-30T16:59:44.871Z,3.1
2018-04-30T17:02:43.541Z,3.4
2018-04-30T17:05:43.701Z,3.4
2018-04-30T17:08:43.504Z,3.4
2018-04-30T17:11:43.673Z,3.4
2018-04-30T17:14:43.779Z,3.4
2018-04-30T17:17:44.949Z,3.4
2018-04-30T17:20:43.705Z,3.4
2018-04-30T17:23:43.647Z,3.4
2018-04-30T17:26:43.555Z,3.4
2018-04-30T17:29:45.287Z,3.4
2018-04-30T17:32:43.730Z,3.4
2018-04-30T17:35:43.529Z,3.4
2018-04-30T17:38:43.673Z,3.4
2018-04-30T17:41:43.553Z,3.4
2018-04-30T17:44:43.505Z,3.4
2018-04-30T17:47:43.599Z,3.4
2018-04-30T17:50:43.672Z,3.4
2018-04-30T17:53:43.400Z,3.4
2018-04-30T17:56:43.706Z,3.4
2018-04-30T17:59:44.283Z,3.4
2018-04-30T18:02:43.391Z,3.5
2018-04-30T18:05:43.546Z,3.5
2018-04-30T18:08:43.411Z,3.5
2018-04-30T18:11:43.583Z,3.5
2018-04-30T18:14:43.509Z,3.5
2018-04-30T18:17:43.425Z,3.5
2018-04-30T18:20:43.519Z,3.5
2018-04-30T18:23:43.393Z,3.5
2018-04-30T18:26:44.360Z,3.5
2018-04-30T18:29:43.773Z,3.5
2018-04-30T18:32:43.403Z,3.5
2018-04-30T18:35:43.601Z,3.5
2018-04-30T18:38:44.471Z,3.5
2018-04-30T18:41:43.483Z,3.5
2018-04-30T18:44:43.603Z,3.5
2018-04-30T18:47:43.523Z,3.5
2018-04-30T18:50:43.451Z,3.5
2018-04-30T18:53:43.509Z,3.5
2018-04-30T18:56:43.478Z,3.5
2018-04-30T18:59:43.671Z,3.5
2018-04-30T19:02:43.614Z,3.5
2018-04-30T19:05:43.553Z,3.5
2018-04-30T19:08:43.367Z,3.5
2018-04-30T19:11:43.568Z,3.5
2018-04-30T19:14:43.629Z,3.5
2018-04-30T19:17:43.572Z,3.5
2018-04-30T19:20:43.503Z,3.5
2018-04-30T19:23:43.423Z,3.5
2018-04-30T19:26:43.552Z,3.5
2018-04-30T19:29:43.492Z,3.5
2018-04-30T19:32:43.617Z,3.5
2018-04-30T19:35:43.425Z,3.5
2018-04-30T19:38:43.475Z,3.5
2018-04-30T19:41:43.459Z,3.5
2018-04-30T19:44:43.503Z,3.5
2018-04-30T19:47:43.600Z,3.5
2018-04-30T19:50:43.812Z,3.5
2018-04-30T19:53:43.442Z,3.5
2018-04-30T19:56:43.446Z,3.5
2018-04-30T19:59:43.536Z,3.5
2018-04-30T20:02:43.765Z,3.5
2018-04-30T20:05:43.495Z,3.5
2018-04-30T20:08:43.373Z,3.5
2018-04-30T20:11:43.505Z,3.5
2018-04-30T20:14:43.818Z,3.5
2018-04-30T20:17:43.388Z,3.5
2018-04-30T20:20:43.838Z,3.5
2018-04-30T20:23:43.759Z,3.5
2018-04-30T20:26:43.958Z,3.5
2018-04-30T20:29:43.874Z,3.5
2018-04-30T20:32:45.111Z,3.5
2018-04-30T20:35:44.124Z,3.5
2018-04-30T20:38:43.550Z,3.5
2018-04-30T20:41:43.632Z,3.5
2018-04-30T20:44:43.431Z,3.5
2018-04-30T20:47:43.615Z,3.5
2018-04-30T20:50:43.426Z,3.5
2018-04-30T20:53:43.405Z,3.5
2018-04-30T20:56:44.389Z,3.5
2018-04-30T20:59:43.686Z,3.5
2018-04-30T21:02:43.427Z,3.5
2018-04-30T21:05:43.689Z,3.5
2018-04-30T21:08:43.390Z,3.5
2018-04-30T21:11:43.403Z,3.5
2018-04-30T21:14:43.480Z,3.5
2018-04-30T21:17:43.731Z,3.5
2018-04-30T21:20:43.377Z,3.5
2018-04-30T21:23:43.542Z,3.5
2018-04-30T21:26:43.496Z,3.5
2018-04-30T21:29:43.418Z,3.5
2018-04-30T21:32:43.433Z,3.5
2018-04-30T21:35:43.875Z,3.5
2018-04-30T21:38:43.541Z,3.5
2018-04-30T21:41:45.430Z,3.5
2018-04-30T21:44:43.439Z,3.5
2018-04-30T21:47:43.446Z,3.5
2018-04-30T21:50:43.369Z,3.5
2018-04-30T21:53:44.426Z,3.5
2018-04-30T21:56:43.367Z,3.5
2018-04-30T21:59:43.410Z,3.5
2018-04-30T22:02:43.580Z,3.4
2018-04-30T22:05:43.526Z,3.4
2018-04-30T22:08:43.536Z,3.4
2018-04-30T22:11:43.530Z,3.4
2018-04-30T22:14:43.462Z,3.4
2018-04-30T22:17:43.452Z,3.4
2018-04-30T22:20:43.441Z,3.4
2018-04-30T22:23:43.778Z,3.4
2018-04-30T22:26:43.398Z,3.4
2018-04-30T22:29:45.789Z,3.4
2018-04-30T22:32:44.542Z,3.4
2018-04-30T22:35:43.864Z,3.4
2018-04-30T22:38:43.557Z,3.4
2018-04-30T22:41:44.226Z,3.4
2018-04-30T22:44:44.262Z,3.4
2018-04-30T22:47:43.387Z,3.4
2018-04-30T22:50:43.487Z,3.4
2018-04-30T22:53:43.393Z,3.4
2018-04-30T22:56:43.878Z,3.4
2018-04-30T22:59:43.475Z,3.4
2018-04-30T23:02:43.384Z,3.3
2018-04-30T23:05:43.471Z,3.3
2018-04-30T23:08:44.049Z,3.3
2018-04-30T23:11:45.674Z,3.3
2018-04-30T23:14:43.506Z,3.3
2018-04-30T23:17:43.478Z,3.3
2018-04-30T23:20:43.510Z,3.3
2018-04-30T23:23:43.757Z,3.3
2018-04-30T23:26:43.375Z,3.3
2018-04-30T23:29:43.353Z,3.3
2018-04-30T23:32:43.404Z,3.3
2018-04-30T23:35:44.160Z,3.3
2018-04-30T23:38:43.431Z,3.3
2018-04-30T23:41:43.677Z,3.3
2018-04-30T23:44:43.517Z,3.3
2018-04-30T23:47:43.476Z,3.3
2018-04-30T23:50:43.376Z,3.3
2018-04-30T23:53:43.281Z,3.3
2018-04-30T23:56:43.657Z,3.3
2018-04-30T23:59:43.545Z,3.3
